Oakley, MI (48649)

11:20 AM EDT on August 30, 2015 (GMT -0400)
CPS Henderson | | Change Station
CLOSE
Current Station
Personal Weather Station
Location: Henderson, MI
Elevation: 735 ft
Nearby Weather Stations

Elev 735 ft 43.08 °N, 84.20 °W | Updated 4 minutes ago

Overcast
Overcast
72.0 °F
Feels Like 72.0 °F
N
0.0
Wind Variable Wind from West
Gusts 0.0 mph

Today
High -- | Low -- °F
--% Chance of Precip.
Yesterday
High -- | Low -- °F
Precip. -- in
6:58 AM 8:15 PM
Full, 99% visible
Pressure 30.07 in
Visibility 5.0 miles
Clouds Mostly Cloudy 1100 ft
Overcast 1400 ft
Dew Point 69 °F
Humidity 89%
Rainfall 0.08 in
Snow Depth Not available.
UV 2 out of 12
Pollen 9.60 out of 12
Air Quality Not available.
Flu Activity Not available.
METAR KRNP 301515Z AUTO 19005KT 5SM BR BKN011 OVC014 23/20 A3007 RMK AO2 T02250201
Pressure 30.07 in
Visibility 5.0 miles
Clouds Mostly Cloudy 1100 ft
Overcast 1400 ft
Dew Point 69 °F
Humidity 89%
Rainfall 0.08 in
Snow Depth Not available.
UV 2 out of 12
Pollen 9.60 out of 12
Air Quality Not available.
Flu Activity Not available.
METAR KRNP 301515Z AUTO 19005KT 5SM BR BKN011 OVC014 23/20 A3007 RMK AO2 T02250201

10-Day Weather Forecast

×

Almanac

Astronomy

Aug. 30, 2015 Rise Set
Actual Time
Civil Twilight
Nautical Twilight
Astronomical Twilight
Moon
Length of Visible Light
Length of Day
Tomorrow will be .
, % of the Moon is Illuminated

Today's Extremes

State Highs State Lows

Community

WunderPhotos

Upload Photos

1,850,991 photos uploaded!

WunderBlogs® & News

Nearby

Air Quality

  Air Quality AQ Index Pollutant
Not available.

Snow Depth

Station Depth Elevation

Earthquake Activity

City Distance Mag. Time & Date
Minimum magnitude displayed is 2.5.

Coastal Water Temperatures

Place Temperature

Stations

Nearby Weather Stations

Station Location Temp. Windchill Dew Point Humidity Wind Precip. Elev Updated Type